createdAt,value
2022-12-11T00:07:49.954Z,75948.84
2022-12-11T00:17:52.018Z,75948.84
2022-12-11T00:27:56.402Z,75969.09
2022-12-11T00:37:58.405Z,75938.75
2022-12-11T00:48:03.839Z,75932.66
2022-12-11T00:58:09.558Z,75952.91
2022-12-11T01:08:14.335Z,75961.00
2022-12-11T01:18:16.420Z,75952.91
2022-12-11T01:28:18.494Z,75963.03
2022-12-11T01:38:25.442Z,75934.69
2022-12-11T01:48:31.956Z,75918.50
2022-12-11T01:58:52.173Z,75912.44
2022-12-11T02:08:58.334Z,75908.38
2022-12-11T02:19:11.056Z,75920.53
2022-12-11T02:29:21.734Z,75932.66
2022-12-11T02:39:27.195Z,75938.75
2022-12-11T02:49:34.309Z,75932.66
2022-12-11T02:59:44.297Z,75944.81
2022-12-11T03:09:49.624Z,75961.00
2022-12-11T03:20:16.133Z,75958.97
2022-12-11T03:30:21.515Z,75979.22
2022-12-11T03:40:26.625Z,75981.25
2022-12-11T03:50:34.566Z,75961.00
2022-12-11T04:00:39.148Z,75977.19
2022-12-11T04:10:43.990Z,75961.00
2022-12-11T04:21:04.756Z,75926.59
2022-12-11T04:31:20.147Z,75928.63
2022-12-11T04:41:27.044Z,75963.03
2022-12-11T04:51:31.311Z,75948.84
2022-12-11T05:01:33.347Z,75930.63
2022-12-11T05:11:36.540Z,75918.50
2022-12-11T05:21:38.738Z,75918.50
2022-12-11T05:31:45.153Z,75912.44
2022-12-11T05:41:49.588Z,75900.28
2022-12-11T05:51:54.052Z,75882.06
2022-12-11T06:01:56.305Z,75896.22
2022-12-11T06:11:58.340Z,75916.47
2022-12-11T06:22:02.542Z,75928.63
2022-12-11T06:32:04.884Z,75956.94
2022-12-11T06:42:09.991Z,75948.84
2022-12-11T06:52:18.359Z,75977.19
2022-12-11T07:02:21.572Z,75969.09
2022-12-11T07:12:30.652Z,75983.25
2022-12-11T07:22:37.601Z,75969.09
2022-12-11T07:32:45.376Z,75952.91
2022-12-11T07:42:47.930Z,75944.81
2022-12-11T07:52:50.141Z,75961.00
2022-12-11T08:03:02.667Z,75954.94
2022-12-11T08:13:05.171Z,75956.94
2022-12-11T08:23:14.520Z,75936.72
2022-12-11T08:33:18.907Z,75944.81
2022-12-11T08:43:20.950Z,75918.50
2022-12-11T08:53:27.979Z,75898.25
2022-12-11T09:03:32.409Z,75884.09
2022-12-11T09:13:35.794Z,75855.75
2022-12-11T09:23:42.941Z,75863.84
2022-12-11T09:33:46.380Z,75851.72
2022-12-11T09:43:55.765Z,75845.63
2022-12-11T09:54:00.422Z,75839.56
2022-12-11T10:04:31.747Z,75837.53
2022-12-11T10:14:35.989Z,75805.16
2022-12-11T10:35:13.110Z,75799.09
2022-12-11T10:45:20.765Z,75791.00
2022-12-11T10:55:28.976Z,75762.66
2022-12-11T11:05:39.152Z,75748.50
2022-12-11T11:15:41.352Z,75718.13
2022-12-11T11:25:52.893Z,75726.22
2022-12-11T11:36:01.773Z,75695.88
2022-12-11T11:46:12.979Z,75699.91
2022-12-11T11:56:38.343Z,75716.13
2022-12-11T12:07:01.899Z,75701.94
2022-12-11T12:17:09.123Z,75722.19
2022-12-11T12:27:53.184Z,75718.13
2022-12-11T12:38:07.810Z,75730.28
2022-12-11T12:48:10.355Z,75726.22
2022-12-11T12:58:26.334Z,75726.22
2022-12-11T13:08:35.028Z,75726.22
2022-12-11T13:18:39.331Z,75742.41
2022-12-11T13:28:41.370Z,75746.47
2022-12-11T13:38:49.511Z,75738.38
2022-12-11T13:49:01.514Z,75742.41
2022-12-11T13:59:04.756Z,75764.69
2022-12-11T14:09:08.746Z,75744.44
2022-12-11T14:19:17.485Z,75742.41
2022-12-11T14:29:26.230Z,75756.59
2022-12-11T14:39:36.310Z,75770.75
2022-12-11T14:49:55.887Z,75784.91
2022-12-11T14:59:58.184Z,75766.72
2022-12-11T15:10:04.951Z,75768.72
2022-12-11T15:20:22.044Z,75778.84
2022-12-11T15:30:34.625Z,75786.94
2022-12-11T15:40:39.107Z,75791.00
2022-12-11T15:50:41.634Z,75799.09
2022-12-11T16:00:43.762Z,75786.94
2022-12-11T16:10:46.513Z,75782.91
2022-12-11T16:20:53.122Z,75774.81
2022-12-11T16:30:57.361Z,75764.69
2022-12-11T16:41:02.874Z,75762.66
2022-12-11T16:51:04.958Z,75762.66
2022-12-11T17:01:16.470Z,75774.81
2022-12-11T17:11:21.869Z,75770.75
2022-12-11T17:21:26.117Z,75762.66
2022-12-11T17:31:28.240Z,75750.53
2022-12-11T17:41:32.597Z,75758.63
2022-12-11T17:51:37.637Z,75754.56
2022-12-11T18:01:42.068Z,75770.75
2022-12-11T18:11:47.288Z,75766.72
2022-12-11T18:21:52.048Z,75754.56
2022-12-11T18:31:58.527Z,75762.66
2022-12-11T18:42:31.077Z,75750.53
2022-12-11T18:52:26.138Z,75742.41
2022-12-11T19:02:29.356Z,75744.44
2022-12-11T19:12:34.614Z,75752.53
2022-12-11T19:22:39.280Z,75734.31
2022-12-11T19:32:43.776Z,75744.44
2022-12-11T19:42:47.736Z,75738.38
2022-12-11T19:52:52.005Z,75746.47
2022-12-11T20:02:59.012Z,75752.53
2022-12-11T20:13:03.563Z,75736.34
2022-12-11T20:23:08.564Z,75734.31
2022-12-11T20:33:11.032Z,75742.41
2022-12-11T20:43:15.497Z,75742.41
2022-12-11T20:53:22.054Z,75742.41
2022-12-11T21:03:28.835Z,75742.41
2022-12-11T21:13:31.426Z,75746.47
2022-12-11T21:23:37.427Z,75726.22
2022-12-11T21:33:47.075Z,75714.09
2022-12-11T21:54:18.955Z,75726.22
2022-12-11T22:04:28.233Z,75730.28
2022-12-11T22:14:31.618Z,75726.22
2022-12-11T22:24:34.778Z,75714.09
2022-12-11T22:34:39.813Z,75728.25
2022-12-11T22:44:43.980Z,75708.03
2022-12-11T22:54:53.616Z,75712.06
2022-12-11T23:05:03.056Z,75693.84
2022-12-11T23:15:08.304Z,75706.00
2022-12-11T23:25:14.472Z,75710.03
2022-12-11T23:35:16.760Z,75718.13
2022-12-11T23:45:21.275Z,75701.94
2022-12-11T23:55:26.134Z,75701.94
